Time;durP1;ratioP1;P1;durP2;ratioP2;P2;SDS_P1;SDS_P2;PMS_P1;PMS_P2;Temp;Humidity;BMP_temperature;BMP_pressure;BME280_temperature;BME280_humidity;BME280_pressure;Samples;Min_cycle;Max_cycle;Signal;HPM_P1;HPM_P2
2021/03/20 00:00:35;;;;;;;5.97;5.13;;;;;;;1.76;45.75;102916.19;6171713;28;20225;-57
2021/03/20 00:04:17;;;;;;;8.17;4.60;;;;;;;1.85;45.78;102918.44;6188706;28;20600;-56
2021/03/20 00:07:45;;;;;;;7.10;4.20;;;;;;;1.90;46.21;102929.84;6177541;28;20588;-54
2021/03/20 00:15:12;;;;;;;9.20;5.23;;;;;;;2.16;45.59;102927.16;6182101;28;20458;-53
2021/03/20 00:18:46;;;;;;;8.90;5.30;;;;;;;2.20;45.37;102937.63;6185218;28;20582;-54
2021/03/20 00:25:56;;;;;;;5.93;4.93;;;;;;;2.27;45.96;102924.31;6183061;28;20229;-55
2021/03/20 00:29:25;;;;;;;6.00;4.40;;;;;;;2.43;45.68;102919.28;6182058;28;20234;-58
2021/03/20 00:32:49;;;;;;;6.33;4.43;;;;;;;2.44;45.72;102923.63;6186497;28;20504;-57
2021/03/20 00:36:12;;;;;;;5.03;4.50;;;;;;;2.51;45.46;102925.75;6185888;28;20229;-55
2021/03/20 00:39:49;;;;;;;8.90;4.97;;;;;;;2.44;45.41;102928.75;6180029;28;20234;-56
2021/03/20 00:47:07;;;;;;;4.90;4.00;;;;;;;1.67;44.96;102931.06;6159124;28;20237;-56
2021/03/20 00:50:34;;;;;;;5.30;4.00;;;;;;;2.19;44.39;102933.28;6176754;28;20233;-54
2021/03/20 00:53:59;;;;;;;7.67;4.13;;;;;;;2.33;44.80;102930.72;6183486;28;20666;-52
2021/03/20 00:57:57;;;;;;;6.90;3.77;;;;;;;1.82;44.75;102939.66;6187869;28;20249;-54
2021/03/20 01:05:15;;;;;;;4.73;2.90;;;;;;;1.43;45.91;102948.38;6179387;28;20811;-54
2021/03/20 01:08:56;;;;;;;3.80;2.43;;;;;;;1.41;46.57;102944.84;6189891;28;20254;-57
2021/03/20 01:12:22;;;;;;;4.93;2.87;;;;;;;0.98;47.29;102932.75;6174669;28;20234;-54
2021/03/20 01:15:48;;;;;;;4.17;2.33;;;;;;;0.93;47.31;102932.47;6186894;28;20233;-55
2021/03/20 01:19:34;;;;;;;6.77;2.90;;;;;;;1.00;47.52;102927.72;6188427;28;20229;-55
2021/03/20 01:23:06;;;;;;;3.33;2.60;;;;;;;0.71;48.01;102929.28;6180286;28;20230;-56
2021/03/20 01:26:39;;;;;;;4.90;2.47;;;;;;;1.01;47.48;102924.34;6182255;28;20639;-54
2021/03/20 01:30:32;;;;;;;4.70;2.70;;;;;;;1.03;47.56;102925.31;6180841;28;20241;-56
2021/03/20 01:33:59;;;;;;;6.30;2.83;;;;;;;1.01;47.85;102925.25;6192892;28;20272;-59
2021/03/20 01:37:27;;;;;;;3.87;2.83;;;;;;;1.18;47.88;102916.03;6185230;28;20226;-55
2021/03/20 01:41:00;;;;;;;4.77;3.90;;;;;;;1.14;47.54;102909.84;6183190;28;20279;-56
2021/03/20 01:44:35;;;;;;;4.70;3.20;;;;;;;0.94;47.84;102913.69;6189596;28;20309;-56
2021/03/20 01:48:06;;;;;;;7.37;3.53;;;;;;;1.15;48.24;102914.19;6185768;28;20234;-56
2021/03/20 01:51:43;;;;;;;5.17;2.67;;;;;;;1.08;47.87;102918.81;6186813;28;20241;-51
2021/03/20 01:55:20;;;;;;;3.27;2.33;;;;;;;1.10;48.08;102930.06;6186962;28;20225;-55
2021/03/20 01:59:05;;;;;;;;;;;;;;;;;;;;;
2021/03/20 02:02:52;;;;;;;4.07;2.90;;;;;;;0.77;48.81;102911.72;6186284;28;20230;-54
2021/03/20 02:06:17;;;;;;;3.03;2.60;;;;;;;0.58;49.21;102905.44;6187119;28;20238;-55
2021/03/20 02:09:39;;;;;;;7.27;4.33;;;;;;;1.15;47.18;102896.22;6180454;28;20226;-55
2021/03/20 02:13:43;;;;;;;4.33;2.43;;;;;;;0.90;48.39;102888.63;6177277;28;20287;-57
2021/03/20 02:17:10;;;;;;;3.13;2.83;;;;;;;0.89;48.50;102891.09;6183680;28;20229;-54
2021/03/20 02:20:55;;;;;;;5.67;2.80;;;;;;;0.86;48.15;102896.06;6176404;28;20234;-55
2021/03/20 02:25:16;;;;;;;4.60;2.67;;;;;;;1.13;47.89;102892.66;6186615;28;20242;-55
2021/03/20 02:29:06;;;;;;;4.07;3.13;;;;;;;1.05;47.71;102896.44;6187618;28;20241;-53
2021/03/20 02:32:37;;;;;;;4.23;2.63;;;;;;;0.70;48.08;102899.28;6185524;28;20238;-55
2021/03/20 02:36:12;;;;;;;3.87;2.37;;;;;;;0.86;48.58;102899.50;6189593;28;20505;-55
2021/03/20 02:39:43;;;;;;;4.40;2.67;;;;;;;1.03;47.40;102889.41;6185403;28;20603;-55
2021/03/20 02:43:09;;;;;;;4.23;1.63;;;;;;;0.91;47.14;102895.56;6187831;28;20230;-57
2021/03/20 02:46:36;;;;;;;1.57;1.43;;;;;;;1.41;46.43;102878.09;6184960;28;20313;-56
2021/03/20 02:50:03;;;;;;;3.63;2.13;;;;;;;1.34;46.73;102882.84;6184449;28;20770;-56
2021/03/20 02:53:27;;;;;;;4.50;2.43;;;;;;;1.80;45.81;102876.16;6180294;28;20618;-56
2021/03/20 02:56:54;;;;;;;4.47;2.50;;;;;;;1.65;46.30;102874.44;6181202;28;20227;-56
2021/03/20 03:00:20;;;;;;;6.00;2.57;;;;;;;1.42;46.96;102869.59;6183013;28;20750;-57
2021/03/20 03:03:44;;;;;;;2.60;2.30;;;;;;;1.21;46.39;102864.03;6183719;28;20756;-55
2021/03/20 03:07:12;;;;;;;4.90;2.30;;;;;;;0.68;47.88;102859.84;6179368;28;20225;-57
2021/03/20 03:10:35;;;;;;;4.00;1.80;;;;;;;1.13;47.23;102850.72;6183120;28;20517;-56
2021/03/20 03:14:00;;;;;;;4.10;2.87;;;;;;;1.08;47.44;102855.53;6183401;28;20229;-56
2021/03/20 03:54:56;;;;;;;4.30;2.30;;;;;;;1.71;46.20;102866.22;6172105;28;20643;-56
2021/03/20 03:58:28;;;;;;;2.60;1.80;;;;;;;1.81;46.67;102873.69;6187685;28;20234;-53
2021/03/20 04:02:00;;;;;;;4.63;2.23;;;;;;;1.35;47.29;102864.06;6176647;28;20238;-56
2021/03/20 04:05:26;;;;;;;1.90;1.77;;;;;;;1.71;46.20;102855.94;6180860;28;20241;-50
2021/03/20 04:08:57;;;;;;;3.47;1.53;;;;;;;1.48;46.53;102852.00;6184601;28;20234;-54
2021/03/20 04:12:23;;;;;;;3.60;2.47;;;;;;;1.34;46.99;102851.16;6184484;28;20230;-55
2021/03/20 04:15:56;;;;;;;2.73;1.80;;;;;;;1.37;47.44;102847.06;6184658;28;20240;-56
2021/03/20 04:19:25;;;;;;;5.70;2.33;;;;;;;0.84;47.81;102841.19;6176531;28;20230;-59
2021/03/20 04:22:55;;;;;;;3.67;2.83;;;;;;;0.61;48.52;102837.19;6179188;28;20237;-53
2021/03/20 04:26:27;;;;;;;3.87;2.10;;;;;;;1.32;47.12;102833.09;6185645;28;20225;-51
2021/03/20 04:29:59;;;;;;;4.37;3.27;;;;;;;0.84;48.72;102831.81;6187996;28;20548;-53
2021/03/20 04:33:24;;;;;;;3.17;2.63;;;;;;;0.71;49.05;102832.72;6192221;28;20245;-55
2021/03/20 04:36:49;;;;;;;3.53;2.50;;;;;;;0.79;49.03;102828.06;6181079;28;20233;-56
2021/03/20 04:40:24;;;;;;;4.37;3.03;;;;;;;0.95;48.79;102841.09;6177318;28;20253;-53
2021/03/20 04:43:45;;;;;;;2.40;1.70;;;;;;;0.64;49.13;102837.34;6189887;28;20233;-50
2021/03/20 04:47:11;;;;;;;5.30;2.20;;;;;;;0.84;48.50;102847.22;6179538;28;20241;-53
2021/03/20 04:50:33;;;;;;;2.23;1.80;;;;;;;1.18;47.36;102847.66;6187706;28;20226;-53
2021/03/20 04:54:04;;;;;;;3.43;1.77;;;;;;;1.34;47.14;102849.47;6189010;28;20234;-52
2021/03/20 04:57:29;;;;;;;5.67;1.60;;;;;;;1.05;47.62;102849.31;6192122;28;20233;-55
2021/03/20 05:00:56;;;;;;;3.23;1.50;;;;;;;0.82;48.27;102850.47;6186836;28;20233;-52
2021/03/20 05:04:23;;;;;;;2.40;1.60;;;;;;;1.47;48.33;102843.38;6189452;28;20230;-55
2021/03/20 05:07:45;;;;;;;4.37;3.03;;;;;;;2.01;47.49;102840.56;6185542;28;20230;-49
2021/03/20 05:11:17;;;;;;;5.03;1.70;;;;;;;1.60;46.36;102832.19;6187236;28;20222;-49
2021/03/20 05:14:40;;;;;;;2.57;1.70;;;;;;;1.23;46.75;102822.25;6182265;28;20229;-49
2021/03/20 05:18:01;;;;;;;3.77;1.87;;;;;;;1.20;46.86;102822.03;6191600;28;20241;-53
2021/03/20 05:21:25;;;;;;;3.63;2.10;;;;;;;0.82;47.87;102829.97;6186809;28;20317;-55
2021/03/20 05:24:48;;;;;;;3.33;1.87;;;;;;;0.71;47.94;102825.00;6186117;28;20249;-54
2021/03/20 05:28:09;;;;;;;1.80;1.53;;;;;;;1.31;46.89;102820.16;6186507;28;20245;-54
2021/03/20 05:31:32;;;;;;;3.03;1.93;;;;;;;0.94;47.11;102835.84;6186098;28;20233;-56
2021/03/20 05:34:54;;;;;;;2.97;1.90;;;;;;;0.79;48.71;102833.19;6187497;28;20325;-54
2021/03/20 05:38:15;;;;;;;6.87;1.93;;;;;;;1.04;47.46;102833.06;6190242;28;20268;-52
2021/03/20 05:41:53;;;;;;;6.00;2.27;;;;;;;1.01;47.91;102832.88;6182540;28;20225;-56
2021/03/20 05:45:25;;;;;;;3.80;1.83;;;;;;;0.82;48.48;102835.09;6186838;28;20615;-57
2021/03/20 05:49:02;;;;;;;2.37;1.53;;;;;;;0.74;48.53;102832.03;6186302;28;20229;-51
2021/03/20 05:52:42;;;;;;;4.00;1.50;;;;;;;0.80;48.74;102850.38;6185922;28;20250;-56
2021/03/20 05:56:09;;;;;;;3.43;1.73;;;;;;;0.51;48.87;102857.09;6181242;28;20249;-56
2021/03/20 05:59:43;;;;;;;4.23;2.27;;;;;;;0.49;49.37;102857.78;6190186;28;20230;-54
2021/03/20 06:03:35;;;;;;;4.47;1.93;;;;;;;0.84;48.88;102857.47;6187345;28;20620;-56
2021/03/20 06:07:12;;;;;;;8.97;2.67;;;;;;;0.72;49.20;102856.72;6175248;28;20261;-55
2021/03/20 06:10:48;;;;;;;3.50;2.27;;;;;;;0.41;49.67;102848.69;6189863;28;20820;-51
2021/03/20 06:14:25;;;;;;;3.47;1.83;;;;;;;0.48;50.66;102846.63;6184028;28;20221;-55
2021/03/20 06:18:01;;;;;;;2.97;2.50;;;;;;;0.48;50.30;102833.81;6186362;28;20237;-55
2021/03/20 06:21:32;;;;;;;3.53;2.23;;;;;;;0.90;49.80;102824.50;6180418;28;20249;-56
2021/03/20 06:25:10;;;;;;;2.70;2.30;;;;;;;1.04;49.96;102834.75;6175461;28;20230;-53
2021/03/20 06:28:36;;;;;;;4.27;2.20;;;;;;;1.14;49.26;102842.22;6183848;28;20222;-54
2021/03/20 06:32:02;;;;;;;4.17;3.00;;;;;;;1.47;48.73;102837.38;6183539;28;20242;-56
2021/03/20 06:35:32;;;;;;;4.53;2.40;;;;;;;1.23;48.63;102858.19;6190328;28;20238;-56
2021/03/20 06:39:02;;;;;;;3.93;2.60;;;;;;;1.07;49.44;102847.78;6185711;28;20320;-54
2021/03/20 06:42:27;;;;;;;5.87;3.00;;;;;;;1.68;48.29;102848.03;6181368;28;20332;-55
2021/03/20 06:45:48;;;;;;;5.10;2.73;;;;;;;1.22;48.85;102840.13;6184684;28;20308;-56
2021/03/20 06:49:23;;;;;;;3.63;2.43;;;;;;;0.99;49.65;102842.16;6177211;28;20221;-56
2021/03/20 06:52:48;;;;;;;3.17;2.67;;;;;;;0.74;50.20;102839.72;6182654;28;20234;-56
2021/03/20 06:56:11;;;;;;;3.23;2.70;;;;;;;1.69;48.03;102830.16;6184009;28;20225;-57
2021/03/20 06:59:31;;;;;;;3.30;2.63;;;;;;;1.44;48.48;102820.09;6186094;28;20305;-54
2021/03/20 07:03:08;;;;;;;3.57;2.30;;;;;;;1.42;48.68;102828.50;6185234;28;20242;-54
2021/03/20 07:06:40;;;;;;;3.70;2.57;;;;;;;1.58;47.83;102831.19;6185354;28;20599;-55
2021/03/20 07:10:04;;;;;;;2.40;1.63;;;;;;;1.68;47.92;102830.94;6185998;28;20958;-55
2021/03/20 07:13:27;;;;;;;3.57;2.00;;;;;;;1.58;47.50;102828.63;6185082;28;20238;-55
2021/03/20 07:16:53;;;;;;;5.87;2.03;;;;;;;1.38;47.96;102828.31;6180744;28;20229;-56
2021/03/20 07:20:17;;;;;;;4.03;2.00;;;;;;;1.75;47.80;102822.81;6182994;28;20234;-55
2021/03/20 07:23:38;;;;;;;2.27;1.77;;;;;;;2.17;46.16;102820.97;6169777;28;20321;-58
2021/03/20 07:27:02;;;;;;;3.80;2.37;;;;;;;1.96;46.85;102804.31;6181258;28;20245;-55
2021/03/20 07:30:33;;;;;;;3.83;2.00;;;;;;;2.18;46.04;102809.00;6179255;28;20457;-54
2021/03/20 07:33:55;;;;;;;2.47;2.03;;;;;;;1.71;47.31;102808.03;6178290;28;20324;-54
2021/03/20 07:37:24;;;;;;;2.67;2.10;;;;;;;2.04;46.60;102805.66;6183406;28;20238;-52
2021/03/20 07:40:45;;;;;;;2.43;2.07;;;;;;;1.92;46.65;102797.22;6183715;28;20257;-56
2021/03/20 07:44:06;;;;;;;4.90;2.67;;;;;;;2.27;45.49;102794.09;6178606;28;20234;-58
2021/03/20 07:47:30;;;;;;;4.07;2.87;;;;;;;2.71;45.81;102787.94;6178532;28;20238;-56
2021/03/20 07:51:02;;;;;;;3.53;2.70;;;;;;;2.34;46.02;102785.03;6177648;28;20276;-56
2021/03/20 07:54:27;;;;;;;5.03;2.23;;;;;;;2.23;46.57;102780.97;6176389;28;20229;-58
2021/03/20 07:57:53;;;;;;;6.90;2.73;;;;;;;2.07;46.41;102786.94;6182713;28;20237;-53
2021/03/20 08:01:24;;;;;;;2.90;1.90;;;;;;;2.03;46.20;102780.72;6196816;28;20336;-54
2021/03/20 08:04:53;;;;;;;5.43;2.63;;;;;;;2.02;45.90;102784.09;6197228;28;20524;-55
2021/03/20 08:08:21;;;;;;;3.07;2.17;;;;;;;2.09;45.90;102786.22;6177302;28;20289;-55
2021/03/20 08:11:41;;;;;;;3.77;2.23;;;;;;;1.56;46.49;102786.56;6189832;28;20357;-53
2021/03/20 08:15:05;;;;;;;2.67;1.53;;;;;;;1.91;46.06;102795.44;6192851;28;20226;-56
2021/03/20 08:18:30;;;;;;;4.00;2.00;;;;;;;1.87;45.66;102793.50;6191100;28;20278;-54
2021/03/20 08:22:06;;;;;;;3.63;1.90;;;;;;;2.45;44.84;102799.38;6193328;28;20261;-57
2021/03/20 08:25:38;;;;;;;2.90;1.60;;;;;;;1.85;45.74;102790.84;6194693;28;20375;-54
2021/03/20 08:28:59;;;;;;;7.73;2.80;;;;;;;1.97;45.59;102795.78;6193229;28;20602;-56
2021/03/20 08:32:30;;;;;;;2.17;1.70;;;;;;;2.47;44.23;102804.63;6189054;28;21350;-56
2021/03/20 08:36:02;;;;;;;5.30;1.57;;;;;;;2.06;45.51;102780.03;6197465;28;20324;-54
2021/03/20 08:39:36;;;;;;;2.40;1.60;;;;;;;2.33;44.61;102791.00;6183273;28;20607;-55
2021/03/20 08:43:18;;;;;;;5.10;2.17;;;;;;;2.17;44.96;102786.66;6176016;28;20233;-57
2021/03/20 08:46:50;;;;;;;2.40;1.77;;;;;;;2.06;45.76;102778.34;6190987;28;20654;-52
2021/03/20 08:50:21;;;;;;;4.33;1.60;;;;;;;2.05;45.46;102789.41;6194188;28;20237;-53
2021/03/20 08:53:51;;;;;;;3.37;1.67;;;;;;;2.61;44.36;102783.09;6187674;28;20340;-56
2021/03/20 08:57:18;;;;;;;1.90;1.63;;;;;;;1.98;44.81;102782.16;6178428;28;20233;-57
2021/03/20 09:00:45;;;;;;;3.23;2.17;;;;;;;2.67;43.81;102787.72;6188508;28;20611;-53
2021/03/20 09:04:09;;;;;;;2.60;1.80;;;;;;;2.40;44.56;102793.09;6190431;28;20592;-54
2021/03/20 09:07:36;;;;;;;2.27;1.87;;;;;;;2.28;44.21;102784.69;6182871;28;20230;-55
2021/03/20 09:11:01;;;;;;;2.30;1.60;;;;;;;2.78;45.85;102778.03;6187177;28;20229;-53
2021/03/20 09:14:26;;;;;;;2.33;1.87;;;;;;;2.54;45.04;102775.88;6184587;28;20328;-54
2021/03/20 09:17:47;;;;;;;2.23;1.47;;;;;;;2.98;42.83;102768.78;6173958;28;20234;-51
2021/03/20 09:21:11;;;;;;;4.77;1.90;;;;;;;2.51;43.50;102776.56;6187066;28;20226;-57
2021/03/20 09:24:34;;;;;;;2.80;1.60;;;;;;;2.66;42.76;102778.25;6186695;28;20226;-57
2021/03/20 09:28:04;;;;;;;3.70;2.00;;;;;;;2.91;41.89;102763.31;6188560;28;20609;-57
2021/03/20 09:31:47;;;;;;;1.67;1.57;;;;;;;3.56;39.53;102761.50;6183693;28;20316;-58
2021/03/20 09:35:23;;;;;;;2.97;1.50;;;;;;;2.77;40.29;102771.97;6182465;28;20234;-57
2021/03/20 09:38:50;;;;;;;3.03;1.60;;;;;;;3.24;41.34;102758.16;6185881;28;20234;-53
2021/03/20 09:42:34;;;;;;;3.10;1.93;;;;;;;2.94;40.87;102765.16;6188449;28;20226;-56
2021/03/20 09:46:41;;;;;;;3.17;2.17;;;;;;;2.60;41.25;102759.88;6181191;28;20245;-54
2021/03/20 09:50:05;;;;;;;5.10;2.13;;;;;;;3.28;41.01;102744.66;6135476;28;20234;-55
2021/03/20 09:53:36;;;;;;;4.73;3.00;;;;;;;3.06;41.46;102758.06;6183113;28;20238;-56
2021/03/20 09:56:58;;;;;;;2.13;1.47;;;;;;;3.25;40.06;102747.06;6188979;28;20237;-59
2021/03/20 10:00:59;;;;;;;4.37;2.30;;;;;;;3.02;42.01;102753.56;6182853;28;20238;-56
2021/03/20 10:04:37;;;;;;;4.53;1.60;;;;;;;2.55;42.72;102757.94;6180239;28;20237;-53
2021/03/20 10:08:00;;;;;;;3.43;2.07;;;;;;;2.99;42.13;102737.09;6178505;28;20233;-56
2021/03/20 10:11:30;;;;;;;2.50;1.90;;;;;;;3.06;42.42;102713.44;6183130;28;20666;-57
2021/03/20 10:15:21;;;;;;;3.67;2.80;;;;;;;3.92;40.42;102720.34;6179285;28;20514;-57
2021/03/20 10:18:57;;;;;;;5.87;1.97;;;;;;;3.80;40.90;102712.00;6168441;28;20486;-57
2021/03/20 10:22:25;;;;;;;2.80;1.77;;;;;;;4.00;41.60;102712.97;6177542;28;20253;-57
2021/03/20 10:25:50;;;;;;;3.33;2.23;;;;;;;4.30;40.23;102708.38;6183335;28;20245;-58
2021/03/20 10:29:25;;;;;;;6.93;2.63;;;;;;;4.16;40.54;102697.41;6177563;28;20234;-56
2021/03/20 10:32:57;;;;;;;5.73;2.60;;;;;;;3.74;41.82;102704.84;6172574;28;20242;-58
2021/03/20 10:36:27;;;;;;;3.10;2.13;;;;;;;4.35;40.85;102686.28;6183872;28;20509;-57
2021/03/20 10:40:01;;;;;;;3.13;2.63;;;;;;;3.96;42.67;102696.47;6185273;28;20230;-57
2021/03/20 10:43:21;;;;;;;3.40;2.80;;;;;;;4.10;41.87;102687.69;6180645;28;20305;-56
2021/03/20 10:46:42;;;;;;;3.13;2.83;;;;;;;4.14;42.43;102674.13;6180216;28;20245;-52
2021/03/20 10:50:07;;;;;;;6.70;3.50;;;;;;;3.71;43.46;102695.28;6178504;28;20755;-56
2021/03/20 10:53:33;;;;;;;3.10;2.70;;;;;;;4.44;42.34;102671.22;6179732;28;20237;-57
2021/03/20 10:56:55;;;;;;;4.30;3.47;;;;;;;4.13;42.78;102669.81;6180748;28;20238;-57
2021/03/20 11:00:22;;;;;;;4.90;3.07;;;;;;;5.23;41.22;102656.56;6178014;28;20658;-56
2021/03/20 11:03:44;;;;;;;4.20;3.10;;;;;;;5.11;41.37;102657.81;6187056;28;20492;-56
2021/03/20 11:07:14;;;;;;;5.93;3.17;;;;;;;4.78;42.02;102659.81;6185935;28;20222;-54
2021/03/20 11:10:39;;;;;;;4.73;3.60;;;;;;;5.63;40.67;102661.69;6182281;28;20554;-56
2021/03/20 11:14:04;;;;;;;3.80;2.80;;;;;;;4.76;42.03;102655.41;6173044;28;20237;-56
2021/03/20 11:17:29;;;;;;;4.40;3.17;;;;;;;3.90;45.19;102670.41;6173782;28;20227;-55
2021/03/20 11:20:49;;;;;;;5.20;3.00;;;;;;;5.55;41.13;102655.34;6172263;28;20226;-54
2021/03/20 11:24:22;;;;;;;3.80;2.93;;;;;;;4.41;44.13;102654.72;6174187;28;20313;-53
2021/03/20 11:27:44;;;;;;;4.07;3.27;;;;;;;5.67;41.82;102636.88;6179112;28;20683;-54
2021/03/20 11:31:06;;;;;;;5.27;3.20;;;;;;;6.74;39.74;102627.13;6178929;28;20222;-57
2021/03/20 11:34:33;;;;;;;5.50;3.70;;;;;;;6.99;39.22;102623.69;6166744;28;20238;-57
2021/03/20 11:37:59;;;;;;;8.47;5.20;;;;;;;6.55;40.48;102623.00;6176823;28;20226;-55
2021/03/20 11:41:25;;;;;;;5.63;4.47;;;;;;;6.24;41.49;102620.97;6187440;28;20222;-56
2021/03/20 11:44:49;;;;;;;6.57;3.37;;;;;;;6.54;41.27;102617.78;6188983;28;20230;-57
2021/03/20 11:48:16;;;;;;;5.67;3.80;;;;;;;6.39;41.66;102600.84;6186586;28;20225;-58
2021/03/20 11:51:43;;;;;;;4.63;3.67;;;;;;;5.27;44.32;102610.28;6179383;28;20227;-57
2021/03/20 11:55:06;;;;;;;4.53;3.90;;;;;;;4.91;45.56;102602.75;6172653;28;20679;-57
2021/03/20 11:58:29;;;;;;;5.43;3.93;;;;;;;4.92;46.13;102585.53;6175332;28;20225;-57
2021/03/20 12:01:51;;;;;;;8.07;4.97;;;;;;;4.99;46.54;102594.44;6178679;28;20230;-56
2021/03/20 12:05:29;;;;;;;3.73;3.30;;;;;;;4.75;47.05;102587.44;6180322;28;20329;-54
2021/03/20 12:08:51;;;;;;;8.50;3.97;;;;;;;5.25;45.78;102582.59;6177212;28;20241;-55
2021/03/20 12:12:11;;;;;;;7.13;3.63;;;;;;;5.42;45.90;102566.09;6170872;28;20261;-56
2021/03/20 12:15:35;;;;;;;5.33;4.03;;;;;;;5.84;44.81;102550.50;6175187;28;20234;-55
2021/03/20 12:19:16;;;;;;;5.07;4.60;;;;;;;5.24;46.85;102555.03;6175653;28;20226;-57
2021/03/20 12:22:44;;;;;;;4.43;4.00;;;;;;;5.19;47.11;102547.06;6181342;28;20226;-56
2021/03/20 12:26:18;;;;;;;5.63;4.70;;;;;;;5.61;46.39;102547.03;6183123;28;20222;-55
2021/03/20 12:29:42;;;;;;;4.57;4.13;;;;;;;4.72;49.98;102539.13;6174709;28;20490;-58
2021/03/20 12:33:15;;;;;;;5.37;3.93;;;;;;;5.32;48.71;102527.78;6182726;28;20238;-57
2021/03/20 12:36:41;;;;;;;4.60;3.67;;;;;;;5.18;49.03;102516.03;6181026;28;20658;-53
2021/03/20 12:40:02;;;;;;;5.77;4.87;;;;;;;5.04;50.17;102510.28;6176665;28;20519;-52
2021/03/20 12:43:30;;;;;;;6.73;4.67;;;;;;;5.12;49.78;102499.47;6181722;28;20230;-55
2021/03/20 12:46:55;;;;;;;4.97;4.07;;;;;;;4.92;50.93;102490.94;6174461;28;20241;-55
2021/03/20 12:50:15;;;;;;;5.20;4.60;;;;;;;5.34;49.88;102474.47;6172659;28;20239;-56
2021/03/20 12:53:37;;;;;;;5.73;4.63;;;;;;;5.46;49.91;102463.72;6165317;28;20239;-55
2021/03/20 12:56:57;;;;;;;7.57;5.07;;;;;;;5.49;49.72;102466.44;6171122;28;20265;-58
2021/03/20 13:00:21;;;;;;;5.70;4.50;;;;;;;5.42;50.26;102467.91;6169257;28;20229;-57
2021/03/20 13:03:41;;;;;;;5.67;4.90;;;;;;;5.33;51.19;102447.78;6172047;28;20427;-58
2021/03/20 13:07:02;;;;;;;5.97;5.40;;;;;;;5.32;51.33;102445.13;6170728;28;20238;-57
2021/03/20 13:10:25;;;;;;;5.37;4.87;;;;;;;5.15;51.94;102439.28;6171988;28;20238;-57
2021/03/20 13:13:45;;;;;;;4.57;4.17;;;;;;;5.18;51.63;102444.59;6173597;28;20237;-57
2021/03/20 13:17:07;;;;;;;6.17;5.10;;;;;;;5.23;52.00;102440.47;6168748;28;20560;-53
2021/03/20 13:20:28;;;;;;;7.27;5.60;;;;;;;5.62;50.65;102426.41;6171265;28;20235;-58
2021/03/20 13:23:48;;;;;;;7.20;5.30;;;;;;;5.71;50.72;102426.78;6173316;28;20770;-57
2021/03/20 13:27:10;;;;;;;6.07;5.47;;;;;;;5.69;51.07;102408.59;6172503;28;20226;-54
2021/03/20 13:30:33;;;;;;;8.77;5.93;;;;;;;5.74;50.87;102413.97;6171000;28;20619;-53
2021/03/20 13:33:54;;;;;;;6.90;6.10;;;;;;;5.49;51.97;102407.88;6171835;28;20234;-57
2021/03/20 13:37:14;;;;;;;7.23;5.33;;;;;;;5.51;51.84;102406.25;6180549;28;20238;-57
2021/03/20 13:40:35;;;;;;;6.50;5.87;;;;;;;5.26;52.09;102404.44;6187906;28;20237;-56
2021/03/20 13:43:57;;;;;;;5.37;4.87;;;;;;;5.22;52.58;102412.03;6189928;28;20226;-52
2021/03/20 13:47:17;;;;;;;6.53;5.93;;;;;;;5.64;51.27;102401.50;6188822;28;20242;-57
2021/03/20 13:50:40;;;;;;;7.13;5.83;;;;;;;5.68;51.77;102401.69;6183937;28;20506;-56
2021/03/20 13:54:00;;;;;;;8.40;5.27;;;;;;;5.41;52.97;102385.16;6175021;28;20238;-57
2021/03/20 13:57:20;;;;;;;6.57;5.37;;;;;;;5.31;53.50;102379.66;6187228;28;20488;-57
2021/03/20 14:00:42;;;;;;;5.20;4.67;;;;;;;5.87;52.46;102368.72;6187051;28;20320;-56
2021/03/20 14:04:03;;;;;;;7.77;5.53;;;;;;;5.87;52.28;102369.63;6183644;28;20234;-55
2021/03/20 14:07:28;;;;;;;7.87;6.17;;;;;;;5.96;52.23;102363.03;6186478;28;20321;-55
2021/03/20 14:10:50;;;;;;;4.77;4.30;;;;;;;5.10;54.73;102371.09;6183807;28;20321;-55
2021/03/20 14:14:10;;;;;;;8.73;5.67;;;;;;;5.65;53.85;102354.19;6177830;28;20249;-56
2021/03/20 14:17:32;;;;;;;6.00;5.40;;;;;;;5.77;53.43;102343.38;6183580;28;20229;-57
2021/03/20 14:20:56;;;;;;;8.23;5.90;;;;;;;5.58;54.76;102350.47;6188105;28;20234;-56
2021/03/20 14:24:16;;;;;;;6.30;5.50;;;;;;;5.79;54.03;102346.91;6179535;28;20415;-57
2021/03/20 14:27:37;;;;;;;5.50;5.00;;;;;;;5.93;53.52;102345.66;6189101;28;20234;-57
2021/03/20 14:30:59;;;;;;;6.17;5.57;;;;;;;6.00;53.15;102336.47;6172609;28;20612;-53
2021/03/20 14:34:21;;;;;;;7.70;6.43;;;;;;;5.88;55.35;102331.72;6183824;28;20237;-53
2021/03/20 14:37:41;;;;;;;7.50;6.80;;;;;;;5.79;54.75;102329.69;6188226;28;20618;-55
2021/03/20 14:41:02;;;;;;;6.40;5.40;;;;;;;6.16;53.70;102322.31;6185544;28;20620;-57
2021/03/20 14:44:23;;;;;;;11.53;6.23;;;;;;;6.17;53.64;102321.50;6189560;28;20229;-57
2021/03/20 14:47:43;;;;;;;7.67;5.63;;;;;;;5.71;54.77;102325.94;6178683;28;20602;-56
2021/03/20 14:51:05;;;;;;;5.47;4.43;;;;;;;5.44;56.30;102310.34;6186348;28;20234;-55
2021/03/20 14:54:25;;;;;;;5.60;5.10;;;;;;;5.67;55.82;102304.28;6176869;28;20257;-56
2021/03/20 14:57:45;;;;;;;5.30;4.90;;;;;;;5.31;56.64;102303.84;6189179;28;20241;-54
2021/03/20 15:01:06;;;;;;;5.63;5.10;;;;;;;5.83;55.76;102294.47;6187795;28;20253;-58
2021/03/20 15:04:26;;;;;;;6.23;5.63;;;;;;;5.48;58.78;102292.41;6185369;28;20233;-53
2021/03/20 15:07:49;;;;;;;8.80;7.90;;;;;;;5.66;58.53;102287.03;6184004;28;20327;-58
2021/03/20 15:11:09;;;;;;;6.87;6.17;;;;;;;5.52;58.75;102273.63;6185582;28;20261;-56
2021/03/20 15:14:30;;;;;;;5.73;5.23;;;;;;;5.51;59.43;102265.81;6180101;28;20250;-54
2021/03/20 15:17:50;;;;;;;7.43;6.40;;;;;;;5.69;58.50;102261.28;6189787;28;20255;-56
2021/03/20 15:21:17;;;;;;;7.13;6.43;;;;;;;5.84;58.47;102260.91;6187102;28;20253;-56
2021/03/20 15:24:39;;;;;;;6.63;6.00;;;;;;;5.32;59.92;102246.19;6181634;28;20229;-55
2021/03/20 15:27:59;;;;;;;10.27;6.83;;;;;;;5.99;58.58;102242.50;6175570;28;20238;-56
2021/03/20 15:31:22;;;;;;;11.30;6.60;;;;;;;6.02;62.04;102231.34;6187850;28;20237;-56
2021/03/20 15:34:42;;;;;;;8.97;7.10;;;;;;;6.03;59.63;102225.34;6186109;28;20241;-56
2021/03/20 15:38:03;;;;;;;6.80;6.20;;;;;;;5.58;61.94;102228.13;6182390;28;23206;-58
2021/03/20 15:41:25;;;;;;;6.87;6.17;;;;;;;5.67;61.99;102221.56;6173572;28;20312;-57
2021/03/20 15:44:46;;;;;;;7.97;7.20;;;;;;;5.76;61.74;102208.09;6174444;28;20317;-58
2021/03/20 15:48:07;;;;;;;9.30;8.40;;;;;;;5.38;64.03;102227.47;6177106;28;20226;-57
2021/03/20 15:51:27;;;;;;;9.27;8.37;;;;;;;5.68;63.95;102228.50;6183276;28;20470;-59
2021/03/20 15:54:49;;;;;;;7.47;6.60;;;;;;;5.12;66.84;102225.72;6171753;28;20270;-59
2021/03/20 15:58:13;;;;;;;9.13;8.33;;;;;;;5.30;66.78;102209.09;6169908;28;20679;-60
2021/03/20 16:01:33;;;;;;;9.70;7.63;;;;;;;5.22;67.47;102198.50;6174516;28;20293;-57
2021/03/20 16:04:54;;;;;;;7.37;6.77;;;;;;;5.52;66.51;102190.94;6163795;28;20246;-56
2021/03/20 16:08:19;;;;;;;8.93;7.50;;;;;;;5.41;67.46;102188.78;6136438;28;20253;-57
2021/03/20 16:11:40;;;;;;;8.33;7.53;;;;;;;5.94;65.34;102186.25;6140935;28;20234;-59
2021/03/20 16:15:01;;;;;;;8.77;7.70;;;;;;;5.53;67.86;102184.06;6173748;28;20238;-58
2021/03/20 16:18:23;;;;;;;10.83;8.30;;;;;;;5.27;68.90;102194.38;6138430;28;20714;-58
2021/03/20 16:21:44;;;;;;;9.33;8.60;;;;;;;5.12;71.14;102180.94;6181820;28;20242;-58
2021/03/20 16:25:05;;;;;;;9.77;8.60;;;;;;;5.29;71.97;102176.34;6179843;28;20567;-53
2021/03/20 16:28:29;;;;;;;9.17;8.27;;;;;;;4.91;73.60;102176.75;6183575;28;20663;-60
2021/03/20 16:31:52;;;;;;;11.80;10.60;;;;;;;4.89;75.61;102165.50;6175997;28;20242;-58
2021/03/20 16:35:13;;;;;;;11.10;10.03;;;;;;;4.93;75.76;102169.94;6180384;28;20238;-59
2021/03/20 16:38:37;;;;;;;12.57;11.23;;;;;;;4.88;77.34;102183.50;6169465;28;20410;-59
2021/03/20 16:42:01;;;;;;;11.90;10.80;;;;;;;4.78;78.05;102151.31;6178555;28;20229;-58
2021/03/20 16:45:23;;;;;;;11.67;10.47;;;;;;;4.87;77.72;102149.09;6176262;28;20652;-58
2021/03/20 16:48:44;;;;;;;12.27;10.83;;;;;;;4.78;78.08;102145.28;6176917;28;20237;-59
2021/03/20 16:52:05;;;;;;;13.10;11.63;;;;;;;4.94;77.40;102132.09;6181229;28;20245;-58
2021/03/20 16:55:27;;;;;;;12.87;11.60;;;;;;;4.58;79.28;102132.53;6176966;28;20408;-58
2021/03/20 16:58:52;;;;;;;15.37;13.57;;;;;;;4.64;81.24;102127.59;6185282;28;20229;-58
2021/03/20 17:02:12;;;;;;;17.17;14.93;;;;;;;4.53;81.27;102127.19;6173363;28;21991;-59
2021/03/20 17:05:37;;;;;;;12.30;11.10;;;;;;;4.59;80.46;102115.34;6181829;28;20786;-57
2021/03/20 17:09:01;;;;;;;15.10;12.47;;;;;;;4.67;80.73;102109.66;6178091;28;20230;-57